Papatoetoe, New Zealand
Current Conditions -  °F | °C
As of 4:30 PM on Saturday 25 Oct 2014 (Local Time) from NZAA Reporting Station
Clear Clear  
Wind Chill: 59°   Ceiling: Unl
Heat Index: 59°   Visibility: 6mi
Dew Point: 39°   Wind: 12mph
Humidity: 48%   Direction: 220°SW
Pressure: 30.15"   Gusts: NA
Location:  36.97°S, 174.85°E
Report Text: NZAA 250330Z AUTO 22010KT 9999 NCD 15/04 Q1021 NOSIG
Loading
Personal Weather Stations






























Interactive Weather Map
Tropical Storm Tracking
New forecast layout! Learn more

10-Day Weather Forecast

Advertisements
Track Severe Weather on mobile